Time;durP1;ratioP1;P1;durP2;ratioP2;P2;SDS_P1;SDS_P2;PMS_P1;PMS_P2;Temp;Humidity;BMP_temperature;BMP_pressure;BME280_temperature;BME280_humidity;BME280_pressure;Samples;Min_cycle;Max_cycle;Signal;HPM_P1;HPM_P2
2021/07/10 00:00:48;;;;;;;7.70;6.87;;;11.30;1.40;;;12.47;100.00;95870.06;646757;216;32150;-71
2021/07/10 00:03:36;;;;;;;7.77;7.07;;;11.30;1.40;;;12.48;100.00;95865.20;645653;212;31585;-71
2021/07/10 00:06:18;;;;;;;7.70;7.00;;;11.30;1.40;;;12.41;100.00;95863.84;645942;212;31585;-71
2021/07/10 00:09:01;;;;;;;7.87;7.07;;;11.20;1.40;;;12.45;100.00;95866.20;647558;212;31562;-71
2021/07/10 00:11:43;;;;;;;7.97;7.30;;;11.20;1.40;;;12.43;100.00;95871.42;620162;225;31996;-71
2021/07/10 00:14:31;;;;;;;7.80;7.20;;;11.20;1.40;;;12.33;100.00;95859.03;630263;217;31721;-73
2021/07/10 00:17:13;;;;;;;7.23;6.60;;;11.20;1.40;;;12.31;100.00;95856.69;646876;216;31827;-73
2021/07/10 00:20:00;;;;;;;7.50;6.90;;;11.20;1.40;;;12.26;100.00;95855.17;647387;216;32227;-72
2021/07/10 00:22:44;;;;;;;7.93;6.50;;;11.10;1.40;;;12.25;100.00;95849.80;646050;212;32271;-72
2021/07/10 00:25:32;;;;;;;10.20;6.90;;;11.10;1.40;;;12.21;100.00;95844.58;619352;226;32046;-71
2021/07/10 00:28:16;;;;;;;8.67;7.23;;;11.00;1.40;;;12.20;100.00;95841.88;646567;212;33554;-72
2021/07/10 00:30:58;;;;;;;7.30;6.50;;;11.00;1.40;;;12.18;100.00;95839.91;647026;212;31592;-73
2021/07/10 00:35:58;;;;;;;7.85;7.15;;;11.00;1.40;;;12.15;100.00;95834.00;648144;216;31544;-73
2021/07/10 00:38:45;;;;;;;8.00;7.30;;;10.90;1.40;;;12.09;100.00;95831.73;645880;216;31580;-72
2021/07/10 00:41:29;;;;;;;8.33;7.53;;;10.70;1.40;;;12.03;100.00;95828.84;617930;226;32039;-71
2021/07/10 00:44:13;;;;;;;6.70;6.20;;;10.60;1.40;;;11.90;100.00;95826.72;618237;226;42541;-72
2021/07/10 00:46:54;;;;;;;8.57;6.40;;;10.40;1.40;;;11.76;100.00;95828.48;646860;216;31579;-71
2021/07/10 00:49:36;;;;;;;6.70;5.80;;;10.40;1.40;;;11.66;100.00;95823.65;646176;216;31577;-71
2021/07/10 00:52:18;;;;;;;7.93;7.22;;;10.30;1.40;;;11.64;100.00;95820.17;646521;212;31537;-71
2021/07/10 00:55:04;;;;;;;7.80;7.10;;;10.30;1.40;;;11.68;100.00;95819.66;646751;216;31607;-72
2021/07/10 00:57:48;;;;;;;8.10;7.40;;;10.40;1.40;;;11.66;100.00;95816.33;646271;212;31583;-70
2021/07/10 01:00:35;;;;;;;8.57;7.67;;;10.40;1.40;;;11.60;100.00;95816.77;629455;222;31852;-72
2021/07/10 01:03:23;;;;;;;8.50;7.60;;;10.40;1.40;;;11.57;100.00;95810.00;646668;216;31749;-72
2021/07/10 01:06:05;;;;;;;7.75;6.95;;;10.30;1.40;;;11.56;100.00;95807.29;647194;212;31874;-71
2021/07/10 01:08:48;;;;;;;8.45;7.55;;;10.40;1.40;;;11.62;100.00;95801.14;648031;216;31841;-71
2021/07/10 01:11:36;;;;;;;8.25;7.32;;;10.30;1.40;;;11.63;100.00;95805.15;645527;216;32331;-71
2021/07/10 01:14:24;;;;;;;8.90;8.00;;;10.20;1.40;;;11.61;100.00;95806.22;646112;212;42170;-72
2021/07/10 01:17:11;;;;;;;9.03;8.20;;;10.20;1.40;;;11.58;100.00;95807.75;647821;212;31622;-71
2021/07/10 01:19:59;;;;;;;8.47;7.70;;;10.30;1.40;;;11.55;100.00;95804.38;647690;212;42192;-72
2021/07/10 01:22:43;;;;;;;7.80;7.10;;;10.30;1.40;;;11.40;100.00;95806.81;619059;226;42546;-71
2021/07/10 01:25:31;;;;;;;7.80;6.70;;;10.10;1.40;;;11.37;100.00;95801.72;617533;222;32173;-71
2021/07/10 01:28:13;;;;;;;8.30;7.03;;;10.00;1.40;;;11.31;100.00;95793.48;646282;216;32042;-71
2021/07/10 01:31:01;;;;;;;8.88;8.07;;;10.10;1.40;;;11.35;100.00;95782.16;646082;216;32212;-71
2021/07/10 01:35:57;;;;;;;10.65;8.32;;;10.20;1.40;;;11.37;100.00;95773.87;647385;212;31657;-71
2021/07/10 01:38:38;;;;;;;8.80;8.00;;;10.20;1.40;;;11.38;100.00;95775.53;618462;222;32200;-72
2021/07/10 01:41:22;;;;;;;8.93;8.03;;;10.00;1.40;;;11.35;100.00;95772.81;633872;216;42371;-71
2021/07/10 01:44:04;;;;;;;9.30;8.50;;;10.00;1.40;;;11.30;100.00;95775.00;645609;212;42351;-71
2021/07/10 01:46:47;;;;;;;8.90;8.10;;;9.90;1.40;;;11.30;100.00;95769.25;646179;216;42281;-72
2021/07/10 01:49:35;;;;;;;9.00;8.10;;;9.90;1.40;;;11.25;100.00;95768.91;646445;216;42195;-71
2021/07/10 01:52:23;;;;;;;9.00;8.20;;;10.00;1.40;;;11.28;100.00;95765.27;646646;216;31566;-73
2021/07/10 01:55:05;;;;;;;9.90;8.90;;;10.10;1.40;;;11.33;100.00;95756.93;618378;222;42574;-71
2021/07/10 01:57:53;;;;;;;9.80;8.80;;;10.00;1.40;;;11.26;100.00;95753.73;645721;216;42202;-72
2021/07/10 02:00:34;;;;;;;10.50;9.50;;;10.00;1.40;;;11.33;100.00;95748.50;646029;216;31569;-71
2021/07/10 02:03:16;;;;;;;10.47;9.57;;;10.10;1.40;;;11.32;100.00;95744.89;647382;216;42193;-72
2021/07/10 02:05:58;;;;;;;9.90;8.73;;;10.10;1.40;;;11.32;100.00;95746.63;645380;212;31600;-71
2021/07/10 02:08:39;;;;;;;10.60;9.53;;;10.10;1.40;;;11.34;100.00;95739.02;647478;212;31589;-71
2021/07/10 02:11:21;;;;;;;10.40;8.77;;;10.10;1.40;;;11.37;100.00;95740.04;646083;212;31773;-71
2021/07/10 02:14:09;;;;;;;10.97;9.97;;;10.10;1.40;;;11.36;100.00;95731.80;646032;216;42305;-71
2021/07/10 02:16:53;;;;;;;10.20;9.13;;;10.20;1.40;;;11.33;100.00;95730.69;645949;216;33724;-71
2021/07/10 02:19:41;;;;;;;12.57;10.00;;;10.00;1.40;;;11.36;100.00;95731.33;647348;212;31611;-71
2021/07/10 02:22:25;;;;;;;10.70;9.60;;;10.10;1.40;;;11.38;100.00;95732.91;647440;216;42761;-73
2021/07/10 02:25:08;;;;;;;10.40;9.50;;;9.90;1.40;;;11.23;100.00;95724.21;646665;216;32278;-71
2021/07/10 02:27:50;;;;;;;9.00;8.10;;;9.80;1.40;;;11.10;100.00;95720.81;645844;216;31595;-71
2021/07/10 02:30:32;;;;;;;9.17;8.37;;;9.70;1.40;;;11.07;100.00;95720.43;620312;226;42752;-71
2021/07/10 02:35:52;;;;;;;9.70;8.90;;;9.70;1.40;;;11.04;100.00;95712.34;645405;216;31863;-71
2021/07/10 02:38:33;;;;;;;9.20;8.30;;;9.70;1.40;;;11.06;100.00;95704.13;620165;226;32103;-72
2021/07/10 02:41:15;;;;;;;10.23;9.32;;;9.60;1.40;;;11.05;100.00;95705.34;633848;212;31834;-71
2021/07/10 02:43:57;;;;;;;8.80;7.90;;;9.70;1.40;;;11.01;100.00;95701.61;646236;212;31912;-70
2021/07/10 02:46:38;;;;;;;9.90;9.00;;;9.50;1.40;;;11.06;100.00;95706.30;645638;212;31724;-72
2021/07/10 02:49:20;;;;;;;10.65;8.90;;;9.50;1.40;;;11.16;100.00;95706.12;645292;216;31585;-72
2021/07/10 02:52:02;;;;;;;8.17;7.30;;;9.50;1.40;;;11.10;100.00;95709.09;647095;212;31628;-71
2021/07/10 02:54:43;;;;;;;5.70;5.20;;;9.50;1.40;;;10.86;100.00;95712.57;645991;212;31568;-72
2021/07/10 02:57:25;;;;;;;5.70;5.20;;;9.20;1.40;;;10.79;100.00;95708.79;645737;212;31596;-71
2021/07/10 03:00:10;;;;;;;6.30;5.70;;;9.10;1.40;;;10.81;100.00;95701.38;646954;212;32155;-71
2021/07/10 03:02:54;;;;;;;6.50;5.90;;;9.20;1.40;;;10.77;100.00;95704.84;644724;216;42259;-71
2021/07/10 03:06:09;;;;;;;7.10;6.40;;;9.10;1.40;;;10.72;100.00;95707.91;647910;212;31521;-70
2021/07/10 03:08:51;;;;;;;8.20;6.20;;;9.20;1.40;;;10.68;100.00;95709.23;647420;212;31587;-70
2021/07/10 03:11:33;;;;;;;9.10;6.50;;;9.20;1.40;;;10.62;100.00;95705.60;646373;212;31585;-70
2021/07/10 03:14:15;;;;;;;8.13;6.47;;;9.00;1.40;;;10.54;100.00;95710.00;647668;212;31539;-71
2021/07/10 03:17:03;;;;;;;8.60;6.60;;;9.00;1.40;;;10.57;100.00;95710.75;645956;216;31661;-71
2021/07/10 03:19:45;;;;;;;7.40;6.70;;;9.10;1.40;;;10.49;100.00;95719.58;618016;222;32061;-72
2021/07/10 03:22:29;;;;;;;7.03;6.30;;;9.00;1.40;;;10.43;100.00;95724.76;646544;212;31585;-70
2021/07/10 03:25:12;;;;;;;7.20;6.40;;;8.90;1.40;;;10.38;100.00;95722.92;645709;216;32143;-72
2021/07/10 03:28:00;;;;;;;7.07;6.47;;;8.80;1.40;;;10.35;100.00;95724.33;644899;212;32080;-71
2021/07/10 03:30:42;;;;;;;8.10;7.30;;;8.80;1.40;;;10.30;100.00;95723.82;645702;216;32426;-71
2021/07/10 03:35:51;;;;;;;7.00;6.40;;;8.80;1.40;;;10.26;100.00;95718.41;645627;216;31577;-72
2021/07/10 03:41:07;;;;;;;8.50;7.63;;;8.90;1.40;;;10.31;100.00;95712.84;635329;216;31750;-71
2021/07/10 03:43:49;;;;;;;7.50;6.80;;;8.90;1.40;;;10.31;100.00;95711.17;646653;212;31588;-71
2021/07/10 03:46:30;;;;;;;7.10;6.50;;;8.80;1.40;;;10.33;100.00;95707.46;647500;212;31567;-71
2021/07/10 03:49:12;;;;;;;7.03;6.43;;;8.80;1.40;;;10.32;100.00;95707.52;646798;212;31884;-70
2021/07/10 03:51:56;;;;;;;6.80;6.20;;;8.90;1.40;;;10.34;100.00;95703.64;645706;216;31665;-71
2021/07/10 03:54:37;;;;;;;6.57;6.07;;;9.00;1.40;;;10.40;100.00;95698.39;619166;225;32002;-72
2021/07/10 03:57:25;;;;;;;9.38;7.70;;;9.00;1.40;;;10.50;100.00;95699.27;615722;226;42451;-71
2021/07/10 04:00:10;;;;;;;7.60;6.90;;;9.10;1.40;;;10.55;100.00;95698.96;646301;212;31579;-71
2021/07/10 04:02:51;;;;;;;7.20;6.50;;;9.10;1.40;;;10.65;100.00;95697.63;646263;212;31681;-71
2021/07/10 04:05:33;;;;;;;8.05;7.30;;;9.10;1.40;;;10.60;100.00;95697.13;645060;212;32364;-70
2021/07/10 04:08:15;;;;;;;8.80;7.17;;;9.20;1.40;;;10.65;100.00;95700.94;646685;216;31737;-71
2021/07/10 04:10:56;;;;;;;8.27;7.10;;;9.20;1.40;;;10.78;100.00;95701.34;647108;212;31681;-71
2021/07/10 04:13:38;;;;;;;7.20;6.60;;;9.30;1.40;;;10.77;100.00;95700.05;645357;216;31721;-72
2021/07/10 04:16:29;;;;;;;8.27;7.37;;;9.20;1.40;;;10.73;100.00;95699.59;646329;216;31664;-72
2021/07/10 04:19:16;;;;;;;7.97;6.10;;;9.20;1.40;;;10.74;100.00;95700.44;647346;216;31563;-71
2021/07/10 04:22:04;;;;;;;6.90;6.30;;;9.20;1.40;;;10.75;100.00;95699.67;646020;216;31566;-72
2021/07/10 04:24:46;;;;;;;8.13;6.80;;;9.20;1.40;;;10.77;100.00;95701.31;646215;216;31587;-72
2021/07/10 04:27:32;;;;;;;5.93;5.43;;;9.20;1.40;;;10.88;100.00;95699.51;646537;216;32203;-71
2021/07/10 04:30:15;;;;;;;8.60;6.80;;;9.30;1.40;;;11.01;100.00;95698.42;646688;212;31548;-71
2021/07/10 04:32:56;;;;;;;8.10;7.30;;;9.50;1.40;;;10.98;100.00;95699.19;646721;216;31587;-71
2021/07/10 04:35:56;;;;;;;9.45;6.25;;;9.40;1.40;;;10.95;100.00;95695.41;645984;216;42909;-71
2021/07/10 04:38:38;;;;;;;6.50;5.67;;;9.50;1.40;;;11.06;100.00;95691.74;647125;216;31641;-71
2021/07/10 04:41:20;;;;;;;6.70;6.00;;;9.50;1.40;;;11.11;100.00;95690.07;645029;216;31591;-71
2021/07/10 04:44:08;;;;;;;7.73;6.50;;;9.60;1.40;;;11.26;100.00;95690.02;645752;212;31716;-72
2021/07/10 04:46:59;;;;;;;7.77;6.70;;;9.80;1.40;;;11.51;100.00;95689.63;645504;216;31929;-71
2021/07/10 04:49:46;;;;;;;9.02;7.05;;;10.00;1.40;;;11.47;100.00;95688.20;646501;212;31546;-72
2021/07/10 04:52:28;;;;;;;9.23;7.87;;;9.90;1.40;;;11.56;100.00;95684.81;641709;216;31632;-72
2021/07/10 04:55:11;;;;;;;8.03;7.23;;;10.00;1.40;;;11.63;100.00;95686.08;646024;212;31577;-71
2021/07/10 04:57:52;;;;;;;8.03;7.30;;;10.00;1.40;;;11.74;100.00;95688.58;645267;216;42948;-72
2021/07/10 05:00:34;;;;;;;8.77;7.87;;;10.20;1.40;;;11.85;100.00;95687.00;645787;216;42704;-72
2021/07/10 05:03:16;;;;;;;9.10;8.20;;;10.30;1.40;;;11.92;100.00;95693.01;645918;216;42809;-71
2021/07/10 05:05:58;;;;;;;11.70;8.97;;;10.40;1.40;;;12.06;100.00;95692.67;645458;213;42854;-72
2021/07/10 05:08:41;;;;;;;8.77;8.00;;;10.60;1.40;;;12.20;100.00;95692.20;646414;212;42227;-73
2021/07/10 05:11:29;;;;;;;9.10;8.30;;;10.70;1.40;;;12.24;100.00;95694.07;646556;216;31633;-70
2021/07/10 05:14:14;;;;;;;8.77;8.07;;;10.80;1.40;;;12.38;100.00;95695.37;645390;212;42197;-72
2021/07/10 05:16:55;;;;;;;8.83;8.03;;;10.90;1.40;;;12.51;100.00;95694.61;646114;216;31574;-71
2021/07/10 05:19:37;;;;;;;8.48;7.68;;;11.00;1.40;;;12.62;100.00;95691.28;647922;212;31591;-72
2021/07/10 05:22:19;;;;;;;8.77;8.00;;;11.10;1.40;;;12.73;100.00;95690.52;647522;212;31592;-70
2021/07/10 05:25:00;;;;;;;8.83;8.07;;;11.20;1.40;;;12.88;100.00;95687.16;646249;212;31553;-71
2021/07/10 05:27:48;;;;;;;9.17;8.30;;;11.30;1.40;;;-143.44;100.00;122422.95;647101;216;42195;-72
2021/07/10 05:30:35;;;;;;;9.47;8.57;;;11.40;1.40;;;;;;646642;212;31589;-71
2021/07/10 05:35:57;;;;;;;8.00;7.28;;;11.70;1.40;;;-143.44;100.00;122422.95;646736;216;31683;-71
2021/07/10 05:38:38;;;;;;;8.87;8.00;;;11.80;1.40;;;;;;644592;212;34540;-71
2021/07/10 05:41:20;;;;;;;9.23;8.20;;;11.90;1.40;;;;;;634522;212;31744;-72
2021/07/10 05:44:01;;;;;;;8.53;7.83;;;12.00;1.40;;;;;;646838;212;42173;-75
2021/07/10 05:46:48;;;;;;;8.10;7.30;;;12.10;1.40;;;;;;618686;226;32064;-73
2021/07/10 05:49:30;;;;;;;8.40;7.80;;;12.30;1.40;;;;;;645474;216;31715;-72
2021/07/10 05:52:10;;;;;;;7.93;7.33;;;12.40;1.40;;;;;;645991;212;32093;-75
2021/07/10 05:54:51;;;;;;;8.67;7.87;;;12.60;1.40;;;;;;644506;216;31849;-72
2021/07/10 05:57:35;;;;;;;7.50;6.90;;;12.80;1.40;;;;;;646647;212;31574;-73
2021/07/10 06:00:17;;;;;;;7.87;7.30;;;12.90;1.40;;;;;;647359;216;31672;-72
2021/07/10 06:02:58;;;;;;;7.40;6.50;;;13.10;1.40;;;;;;646639;212;31604;-72
2021/07/10 06:05:39;;;;;;;7.20;6.60;;;13.30;1.40;;;;;;645985;216;31949;-71
2021/07/10 06:08:20;;;;;;;6.53;6.00;;;13.50;1.40;;;;;;645264;212;31713;-71
2021/07/10 06:11:01;;;;;;;6.43;5.93;;;13.60;1.40;;;;;;645948;216;31579;-72
2021/07/10 06:13:42;;;;;;;6.50;6.00;;;13.70;1.40;;;;;;646554;212;31536;-73
2021/07/10 06:16:23;;;;;;;5.20;4.70;;;13.90;1.40;;;;;;645721;212;31549;-72
2021/07/10 06:19:04;;;;;;;6.30;5.80;;;14.10;1.40;;;;;;646787;216;31580;-71
2021/07/10 06:21:45;;;;;;;4.80;4.50;;;14.20;1.40;;;;;;646614;212;31598;-72
2021/07/10 06:24:26;;;;;;;5.77;5.17;;;14.50;1.40;;;;;;647146;212;32207;-72
2021/07/10 06:27:07;;;;;;;6.37;5.87;;;14.50;1.40;;;;;;645883;212;31624;-72
2021/07/10 06:29:49;;;;;;;16.87;15.57;;;14.60;1.40;;;;;;646665;216;31564;-73
2021/07/10 06:32:31;;;;;;;7.40;6.60;;;14.60;1.40;;;;;;641431;216;33015;-73
2021/07/10 06:35:50;;;;;;;6.80;6.25;;;14.90;1.40;;;;;;647070;216;31542;-73
2021/07/10 06:38:32;;;;;;;7.23;6.53;;;15.20;1.40;;;;;;619064;222;32439;-73
2021/07/10 06:41:13;;;;;;;6.83;6.30;;;15.30;1.40;;;;;;633750;216;31930;-74
2021/07/10 06:43:54;;;;;;;7.43;6.82;;;15.50;1.40;;;;;;647221;212;31523;-73
2021/07/10 06:46:35;;;;;;;8.30;7.40;;;15.70;1.40;;;;;;645856;212;31833;-72
2021/07/10 06:49:16;;;;;;;7.37;6.70;;;15.80;1.40;;;;;;646633;216;31574;-70
2021/07/10 06:51:57;;;;;;;7.40;6.80;;;16.00;1.40;;;;;;646777;212;31558;-72
2021/07/10 06:54:38;;;;;;;6.30;5.90;;;16.10;1.40;;;;;;647159;216;31628;-72
2021/07/10 06:59:33;;;;;;;6.35;5.90;;;16.20;1.40;;;;;;619120;226;32405;-72
2021/07/10 07:02:14;;;;;;;6.43;5.90;;;16.30;1.40;;;;;;646063;216;31723;-71
2021/07/10 07:04:58;;;;;;;7.50;6.70;;;16.40;1.40;;;;;;646440;216;31535;-71
2021/07/10 07:07:39;;;;;;;6.20;5.80;;;16.60;1.40;;;;;;645152;216;31532;-72
2021/07/10 07:10:20;;;;;;;6.10;5.60;;;16.70;1.40;;;;;;619233;222;31911;-72
2021/07/10 07:13:01;;;;;;;5.95;5.35;;;16.80;1.40;;;;;;645402;212;31665;-72
2021/07/10 07:15:43;;;;;;;5.80;5.20;;;16.90;1.40;;;;;;647913;216;31715;-72
2021/07/10 07:18:23;;;;;;;6.00;5.60;;;17.00;1.40;;;;;;646661;212;32211;-72
2021/07/10 07:21:05;;;;;;;7.20;6.60;;;17.10;1.40;;;;;;646363;212;32215;-72
2021/07/10 07:23:46;;;;;;;6.05;5.45;;;17.20;1.40;;;;;;619177;226;32450;-72
2021/07/10 07:26:30;;;;;;;6.78;6.18;;;17.30;1.40;;;;;;645603;212;31626;-72
2021/07/10 07:29:11;;;;;;;6.50;5.90;;;17.40;1.40;;;;;;645941;216;31658;-72
2021/07/10 07:31:52;;;;;;;6.33;5.73;;;17.50;1.40;;;;;;647742;212;31637;-73
2021/07/10 07:35:51;;;;;;;6.68;6.07;;;17.80;1.40;;;19.13;100.00;95683.33;646760;212;31574;-72
2021/07/10 07:38:32;;;;;;;6.15;5.55;;;18.00;1.40;;;-143.44;100.00;122422.95;618189;222;32286;-72
2021/07/10 07:41:14;;;;;;;5.80;5.40;;;18.00;1.40;;;;;;630828;219;42457;-74
2021/07/10 07:43:55;;;;;;;7.10;6.50;;;18.10;1.40;;;;;;645394;212;31609;-73
2021/07/10 07:46:36;;;;;;;6.18;5.68;;;18.20;1.40;;;;;;618633;222;32191;-73
2021/07/10 07:49:17;;;;;;;6.30;5.80;;;18.30;1.40;;;;;;646488;212;31673;-72
2021/07/10 07:52:05;;;;;;;6.20;5.70;;;18.30;1.40;;;;;;646191;212;32544;-72
2021/07/10 07:54:48;;;;;;;6.53;6.03;;;18.40;1.40;;;;;;618353;222;31980;-74
2021/07/10 07:57:35;;;;;;;6.87;6.27;;;18.60;1.40;;;;;;646039;212;32621;-71
2021/07/10 08:00:22;;;;;;;6.12;5.65;;;18.90;1.40;;;;;;645270;216;33230;-72
2021/07/10 08:03:05;;;;;;;6.78;6.07;;;19.30;1.40;;;;;;646213;216;31562;-72
2021/07/10 08:05:55;;;;;;;5.50;5.10;;;19.50;1.40;;;;;;646099;212;31672;-72
2021/07/10 08:08:42;;;;;;;6.12;5.62;;;19.00;1.40;;;;;;646394;212;32299;-71
2021/07/10 08:11:24;;;;;;;6.32;5.28;;;19.20;1.40;;;;;;647458;212;32152;-73
2021/07/10 08:14:12;;;;;;;6.05;5.55;;;19.60;1.40;;;;;;645748;216;31680;-72
2021/07/10 08:16:52;;;;;;;6.70;6.10;;;19.50;1.40;;;;;;646597;216;31635;-72
2021/07/10 08:19:33;;;;;;;5.95;5.30;;;19.60;1.40;;;;;;646923;216;31828;-72
2021/07/10 08:22:14;;;;;;;6.70;6.10;;;19.90;1.40;;;;;;646394;212;31603;-71
2021/07/10 08:24:55;;;;;;;6.37;5.78;;;20.00;1.40;;;;;;646966;216;42275;-71
2021/07/10 08:30:13;;;;;;;5.82;5.37;;;20.00;1.40;;;;;;645309;216;42221;-72
2021/07/10 08:32:52;;;;;;;6.32;5.72;;;20.00;1.40;;;;;;645612;216;42175;-72
2021/07/10 08:35:51;;;;;;;5.83;5.33;;;20.20;1.40;;;21.30;88.93;95641.87;620156;226;31968;-72
2021/07/10 08:38:32;;;;;;;6.85;6.00;;;20.20;1.40;;;20.89;90.10;95640.77;647102;212;31757;-72
2021/07/10 08:41:14;;;;;;;6.35;5.85;;;20.10;1.40;;;21.38;91.31;95640.13;634403;216;32455;-72
2021/07/10 08:43:56;;;;;;;6.03;5.43;;;20.30;1.40;;;21.99;94.21;95642.84;647775;216;32129;-72
2021/07/10 08:46:38;;;;;;;5.30;4.90;;;21.00;1.40;;;21.85;86.09;95638.01;645493;216;42414;-72
2021/07/10 08:49:19;;;;;;;6.25;5.15;;;20.90;1.40;;;22.13;88.13;95648.55;646600;212;32173;-72
2021/07/10 08:52:04;;;;;;;5.00;4.60;;;21.10;1.40;;;22.90;84.58;95643.48;646235;216;31606;-73
2021/07/10 08:54:46;;;;;;;5.20;4.80;;;21.70;1.40;;;23.21;83.61;95639.45;646364;212;42202;-72
2021/07/10 08:57:28;;;;;;;5.07;4.68;;;22.00;1.40;;;22.71;81.25;95634.72;646005;212;31705;-73
2021/07/10 09:00:23;;;;;;;4.70;4.30;;;21.40;1.40;;;23.18;88.25;95634.01;646606;216;32281;-73
2021/07/10 09:03:05;;;;;;;5.30;4.80;;;22.00;1.40;;;23.81;81.21;95623.70;647188;216;31732;-73
2021/07/10 09:05:46;;;;;;;4.90;4.50;;;22.20;1.40;;;24.01;79.17;95618.47;646763;212;32107;-72
2021/07/10 09:08:28;;;;;;;5.70;5.30;;;22.60;1.40;;;23.21;75.96;95623.08;645047;216;31634;-73
2021/07/10 09:11:11;;;;;;;5.47;5.07;;;22.00;1.40;;;23.54;76.03;95614.54;619441;222;31897;-72
2021/07/10 09:13:54;;;;;;;4.85;4.45;;;21.90;1.40;;;23.15;76.68;95613.80;619716;226;31893;-72
2021/07/10 09:16:35;;;;;;;4.95;4.65;;;21.90;1.40;;;24.04;79.22;95605.66;645988;212;31635;-71
2021/07/10 09:19:17;;;;;;;4.60;4.20;;;22.90;1.40;;;23.73;72.02;95607.19;646265;212;31662;-72
2021/07/10 09:21:59;;;;;;;4.78;4.37;;;22.50;1.40;;;23.52;71.16;95608.13;645632;216;32106;-72
2021/07/10 09:24:49;;;;;;;4.72;4.37;;;22.30;1.40;;;24.24;73.27;95609.76;645485;216;42759;-74
2021/07/10 09:27:34;;;;;;;4.90;4.50;;;23.00;1.40;;;25.40;74.36;95595.39;645570;212;31517;-72
2021/07/10 09:30:16;;;;;;;4.82;4.43;;;24.10;1.40;;;26.52;62.24;95605.65;646722;216;42205;-73
2021/07/10 09:35:55;;;;;;;5.00;4.57;;;26.50;1.40;;;29.10;60.85;95586.15;646554;216;32195;-72
2021/07/10 09:38:37;;;;;;;4.20;3.90;;;26.70;1.40;;;29.57;55.40;95583.70;645944;212;31637;-73
2021/07/10 09:41:18;;;;;;;4.40;4.10;;;26.60;1.40;;;28.71;52.76;95586.93;646327;212;31732;-73
2021/07/10 09:44:05;;;;;;;4.25;3.95;;;25.20;1.40;;;29.44;54.15;95577.56;646363;216;42190;-72
2021/07/10 09:46:46;;;;;;;4.28;3.97;;;26.40;1.40;;;30.28;51.07;95570.09;646945;216;31977;-72
2021/07/10 09:49:28;;;;;;;4.20;3.90;;;25.70;1.40;;;29.74;54.55;95560.23;645768;216;31739;-73
2021/07/10 09:52:12;;;;;;;4.60;4.20;;;25.70;1.40;;;29.79;52.09;95555.83;619128;225;42729;-73
2021/07/10 09:54:54;;;;;;;4.60;4.20;;;26.40;1.40;;;30.05;53.47;95551.45;646076;216;31651;-72
2021/07/10 09:57:35;;;;;;;4.37;4.05;;;26.60;1.40;;;33.07;48.76;95542.05;618142;222;32199;-72
2021/07/10 10:00:17;;;;;;;4.90;4.50;;;27.80;1.40;;;29.14;48.36;95549.92;645927;212;31639;-72
2021/07/10 10:02:58;;;;;;;4.53;4.22;;;25.60;1.40;;;28.59;54.92;95542.24;617696;222;32130;-73
2021/07/10 10:05:42;;;;;;;4.12;3.90;;;25.30;1.40;;;31.64;48.79;95539.49;631199;218;31796;-72
2021/07/10 10:08:22;;;;;;;4.32;4.00;;;27.40;1.40;;;31.70;46.30;95538.99;645543;216;31672;-73
2021/07/10 10:11:04;;;;;;;3.97;3.67;;;27.30;1.40;;;32.10;48.33;95543.63;646014;212;31659;-73
2021/07/10 10:13:45;;;;;;;3.97;3.67;;;27.50;1.40;;;31.15;46.61;95544.86;646601;216;31653;-73
2021/07/10 10:16:27;;;;;;;4.35;3.95;;;26.80;1.40;;;31.38;45.46;95537.01;646308;213;31644;-73
2021/07/10 10:19:09;;;;;;;4.20;3.75;;;26.60;1.40;;;31.70;45.40;95531.22;617128;222;32471;-73
2021/07/10 10:21:50;;;;;;;4.87;4.37;;;26.30;1.40;;;31.55;47.38;95534.03;647492;216;31624;-73
2021/07/10 10:24:32;;;;;;;4.22;3.83;;;25.50;1.40;;;28.81;48.25;95532.05;647786;216;42308;-73
2021/07/10 10:27:13;;;;;;;3.90;3.60;;;24.80;1.40;;;30.44;52.03;95524.94;645283;212;31653;-72
2021/07/10 10:29:55;;;;;;;4.10;3.60;;;25.60;1.40;;;32.16;48.58;95526.91;647976;212;31586;-73
2021/07/10 10:32:37;;;;;;;3.60;3.40;;;26.80;1.40;;;34.22;43.98;95515.92;646382;212;31710;-73
2021/07/10 10:35:54;;;;;;;3.17;2.97;;;28.40;1.40;;;34.33;42.48;95512.29;645060;212;32641;-73
2021/07/10 10:38:37;;;;;;;4.20;3.90;;;27.30;1.40;;;33.09;43.03;95510.56;645359;212;31664;-73
2021/07/10 10:41:25;;;;;;;4.62;3.80;;;27.30;1.40;;;33.18;42.76;95510.55;646535;216;31703;-72
2021/07/10 10:44:12;;;;;;;3.80;3.50;;;26.90;1.40;;;32.85;42.18;95502.98;646599;216;42353;-73
2021/07/10 10:47:00;;;;;;;3.10;2.90;;;26.80;1.40;;;34.16;43.09;95498.22;646382;212;31605;-73
2021/07/10 10:49:49;;;;;;;3.60;3.30;;;27.60;1.40;;;32.09;43.07;95502.42;644643;216;31523;-72
2021/07/10 10:52:33;;;;;;;3.70;3.40;;;26.60;1.40;;;30.42;47.67;95503.36;646912;212;31556;-72
2021/07/10 10:55:17;;;;;;;4.20;3.90;;;24.60;1.40;;;32.69;44.74;95501.33;619023;222;32626;-73
2021/07/10 10:58:22;;;;;;;3.67;3.37;;;26.90;1.40;;;-143.44;100.00;122422.95;645841;212;31596;-73
2021/07/10 11:01:07;;;;;;;3.60;3.40;;;28.70;1.40;;;;;;647166;216;32917;-73
2021/07/10 11:03:49;;;;;;;3.70;3.40;;;27.70;1.40;;;;;;647528;212;31717;-72
2021/07/10 11:06:30;;;;;;;4.00;3.80;;;27.90;1.40;;;;;;645460;216;31628;-73
2021/07/10 11:09:11;;;;;;;3.90;3.60;;;27.60;1.40;;;;;;618480;226;32793;-74
2021/07/10 11:11:52;;;;;;;3.90;3.60;;;28.00;1.40;;;;;;618605;222;43349;-73
2021/07/10 11:14:33;;;;;;;3.90;3.60;;;28.30;1.40;;;;;;646962;212;31577;-74
2021/07/10 11:17:14;;;;;;;4.10;3.80;;;28.80;1.40;;;;;;646206;216;33073;-73
2021/07/10 11:19:58;;;;;;;3.30;3.10;;;29.20;1.40;;;;;;645335;216;33257;-73
2021/07/10 11:22:51;;;;;;;4.00;3.70;;;29.00;1.40;;;;;;647605;216;31818;-74
2021/07/10 11:25:39;;;;;;;3.87;3.65;;;27.70;1.40;;;;;;646706;216;31679;-73
2021/07/10 11:28:20;;;;;;;3.40;3.10;;;27.30;1.40;;;;;;617852;225;31958;-72
2021/07/10 11:31:01;;;;;;;3.80;3.60;;;28.40;1.40;;;;;;646096;215;31603;-73
2021/07/10 11:35:51;;;;;;;3.53;3.22;;;28.10;1.40;;;;;;645327;216;31604;-74
2021/07/10 11:38:40;;;;;;;4.15;3.47;;;26.90;1.40;;;;;;645856;212;31630;-73
2021/07/10 11:44:12;;;;;;;3.47;3.28;;;28.60;1.40;;;;;;618397;222;31908;-72
2021/07/10 11:47:11;;;;;;;3.40;3.10;;;28.80;1.40;;;;;;646130;212;31656;-73
2021/07/10 11:49:52;;;;;;;3.80;3.50;;;28.60;1.40;;;;;;646268;216;31602;-73
2021/07/10 11:52:33;;;;;;;4.03;3.72;;;28.10;1.40;;;;;;645970;212;31613;-74
2021/07/10 11:55:14;;;;;;;3.70;3.50;;;29.10;1.40;;;;;;646083;216;31602;-73
2021/07/10 11:57:55;;;;;;;4.12;3.80;;;29.50;1.40;;;;;;645685;212;31622;-74
2021/07/10 12:00:43;;;;;;;3.70;3.40;;;28.80;1.40;;;;;;645318;216;42251;-75
2021/07/10 12:03:32;;;;;;;4.18;3.58;;;29.50;1.40;;;;;;646153;216;31601;-74
2021/07/10 12:08:46;;;;;;;3.90;3.70;;;30.10;1.40;;;;;;645051;212;32490;-73
2021/07/10 12:11:27;;;;;;;4.35;4.05;;;28.90;1.40;;;;;;621059;222;31941;-73
2021/07/10 12:14:08;;;;;;;4.60;4.30;;;27.10;1.40;;;;;;647169;216;31692;-73
2021/07/10 12:16:49;;;;;;;4.20;3.90;;;26.10;1.40;;;;;;645250;212;32203;-72
2021/07/10 12:19:31;;;;;;;3.80;3.60;;;28.50;1.40;;;;;;646221;216;31663;-73
2021/07/10 12:22:12;;;;;;;4.53;4.10;;;29.10;1.40;;;;;;648158;216;31732;-73
2021/07/10 12:24:53;;;;;;;4.40;4.10;;;29.20;1.40;;;;;;645505;216;31629;-73
2021/07/10 12:27:34;;;;;;;5.20;4.00;;;29.20;1.40;;;;;;645919;216;31574;-73
2021/07/10 12:30:15;;;;;;;4.00;3.80;;;30.30;1.40;;;;;;645331;212;31700;-73
2021/07/10 12:32:56;;;;;;;3.90;3.60;;;29.20;1.40;;;;;;646256;216;32197;-73
2021/07/10 12:36:18;;;;;;;3.97;3.67;;;29.40;1.40;;;38.51;33.42;95393.26;634981;216;31730;-73
2021/07/10 12:41:45;;;;;;;4.10;3.80;;;28.70;1.40;;;34.63;37.85;95393.45;634958;216;32350;-73
2021/07/10 12:44:28;;;;;;;4.20;3.90;;;27.60;1.40;;;32.85;38.55;95391.59;619576;226;32240;-73
2021/07/10 12:47:18;;;;;;;3.70;3.40;;;26.80;1.40;;;35.08;38.33;95391.88;645691;212;31568;-73
2021/07/10 12:49:58;;;;;;;4.40;3.70;;;28.40;1.40;;;-143.44;100.00;122422.95;645791;212;31562;-73
2021/07/10 12:52:46;;;;;;;3.60;3.40;;;29.70;1.40;;;;;;645982;216;31731;-73
2021/07/10 12:55:27;;;;;;;3.97;3.67;;;29.60;1.40;;;;;;645845;216;31784;-73
2021/07/10 12:58:07;;;;;;;5.62;3.72;;;29.60;1.40;;;;;;647169;212;31846;-73